Time;durP1;ratioP1;P1;durP2;ratioP2;P2;SDS_P1;SDS_P2;PMS_P1;PMS_P2;Temp;Humidity;BMP_temperature;BMP_pressure;BME280_temperature;BME280_humidity;BME280_pressure;Samples;Min_cycle;Max_cycle;Signal;HPM_P1;HPM_P2
2023/07/06 00:00:54;;;;;;;3.85;2.70;;;;;;;13.46;93.33;100691.22;4846943;29;20054;-84
2023/07/06 00:03:23;;;;;;;6.03;3.05;;;;;;;13.38;94.10;100696.75;4853614;29;20060;-82
2023/07/06 00:05:51;;;;;;;4.72;2.47;;;;;;;13.35;94.07;100701.28;4861880;29;20052;-83
2023/07/06 00:08:18;;;;;;;5.30;3.10;;;;;;;13.26;95.13;100702.44;4863509;29;20053;-82
2023/07/06 00:10:49;;;;;;;4.85;2.90;;;;;;;13.19;95.41;100704.41;4867541;29;20041;-82
2023/07/06 00:13:17;;;;;;;8.07;3.78;;;;;;;13.10;96.00;100702.00;4863228;29;20056;-80
2023/07/06 00:15:44;;;;;;;5.55;2.67;;;;;;;13.09;95.82;100699.41;4864199;29;20552;-82
2023/07/06 00:18:11;;;;;;;4.32;2.72;;;;;;;12.98;96.99;100699.72;4854911;29;20121;-83
2023/07/06 00:20:39;;;;;;;4.07;2.90;;;;;;;12.98;96.70;100696.22;4865468;29;20081;-81
2023/07/06 00:23:08;;;;;;;3.75;2.70;;;;;;;12.97;96.97;100703.28;4865523;29;20082;-82
2023/07/06 00:25:36;;;;;;;4.60;2.70;;;;;;;12.90;96.59;100699.09;4839921;29;20041;-83
2023/07/06 00:28:04;;;;;;;5.07;2.70;;;;;;;12.79;97.80;100710.00;4873698;29;20054;-85
2023/07/06 00:33:13;;;;;;;6.40;3.42;;;;;;;12.69;99.98;100708.50;4864773;29;20113;-81
2023/07/06 00:35:41;;;;;;;3.80;2.95;;;;;;;12.66;100.00;100708.59;4878315;29;20500;-83
2023/07/06 00:38:10;;;;;;;5.55;3.40;;;;;;;12.62;100.00;100713.13;4846120;29;20045;-84
2023/07/06 00:40:38;;;;;;;4.65;2.80;;;;;;;12.61;100.00;100715.81;4859116;29;20309;-81
2023/07/06 00:43:09;;;;;;;3.90;2.63;;;;;;;12.51;100.00;100724.94;4873095;29;20434;-86
2023/07/06 00:45:39;;;;;;;3.88;2.60;;;;;;;12.47;100.00;100724.16;4847763;29;20037;-82
2023/07/06 00:48:17;;;;;;;4.93;2.85;;;;;;;12.42;100.00;100723.41;4861059;29;20106;-85
2023/07/06 00:50:44;;;;;;;3.60;3.08;;;;;;;12.36;100.00;100721.81;4830105;29;20117;-86
2023/07/06 00:53:14;;;;;;;5.20;3.40;;;;;;;12.52;100.00;100726.66;4863313;29;20046;-84
2023/07/06 00:55:41;;;;;;;5.10;2.97;;;;;;;12.43;100.00;100726.91;4848639;29;20038;-83
2023/07/06 00:58:25;;;;;;;5.07;2.88;;;;;;;12.39;100.00;100727.00;4881718;29;20345;-84
2023/07/06 01:00:53;;;;;;;4.68;3.20;;;;;;;12.30;100.00;100724.59;4840818;29;20060;-84
2023/07/06 01:03:19;;;;;;;5.20;2.88;;;;;;;12.28;100.00;100722.91;4850677;29;20073;-85
2023/07/06 01:05:48;;;;;;;4.65;3.10;;;;;;;12.28;100.00;100723.78;4873481;29;20041;-84
2023/07/06 01:08:18;;;;;;;5.80;2.92;;;;;;;12.23;100.00;100728.31;4869667;29;20037;-86
2023/07/06 01:10:45;;;;;;;4.82;3.22;;;;;;;12.23;100.00;100730.09;4858547;29;20048;-85
2023/07/06 01:13:12;;;;;;;5.18;3.10;;;;;;;12.21;100.00;100737.22;4874468;29;20057;-85
2023/07/06 01:15:43;;;;;;;4.70;3.28;;;;;;;12.21;100.00;100746.03;4898445;29;20069;-85
2023/07/06 01:18:18;;;;;;;5.57;3.33;;;;;;;12.19;100.00;100750.53;4859168;29;20049;-85
2023/07/06 01:20:53;;;;;;;4.18;3.35;;;;;;;12.20;100.00;100757.56;4890366;29;20126;-85
2023/07/06 01:24:14;;;;;;;4.15;3.28;;;;;;;12.15;100.00;100751.50;4872084;29;20073;-85
2023/07/06 01:26:55;;;;;;;4.47;3.40;;;;;;;12.15;100.00;100759.44;4876870;29;20112;-84
2023/07/06 01:29:45;;;;;;;4.82;3.00;;;;;;;12.09;100.00;100751.63;4858281;29;20040;-85
2023/07/06 01:32:14;;;;;;;5.60;3.08;;;;;;;12.05;100.00;100753.50;4884532;29;20057;-85
2023/07/06 01:34:47;;;;;;;4.25;3.20;;;;;;;12.04;100.00;100754.41;4887815;29;20038;-84
2023/07/06 01:37:32;;;;;;;5.20;3.30;;;;;;;12.07;100.00;100756.97;4860622;29;20051;-86
2023/07/06 01:40:00;;;;;;;7.22;3.03;;;;;;;12.06;100.00;100755.25;4853920;29;20139;-86
2023/07/06 01:42:32;;;;;;;5.75;3.45;;;;;;;11.99;100.00;100752.78;4873931;29;20029;-83
2023/07/06 01:45:02;;;;;;;5.13;3.38;;;;;;;11.91;100.00;100752.09;4887839;29;20042;-83
2023/07/06 01:47:31;;;;;;;6.40;3.53;;;;;;;11.87;100.00;100758.38;4872499;29;20049;-86
2023/07/06 01:50:00;;;;;;;5.10;3.20;;;;;;;11.82;100.00;100761.13;4854826;29;20046;-86
2023/07/06 01:52:39;;;;;;;3.88;2.85;;;;;;;11.83;100.00;100753.16;4872945;29;20061;-85
2023/07/06 01:55:32;;;;;;;6.05;3.28;;;;;;;11.69;100.00;100757.03;4858241;29;20090;-85
2023/07/06 01:58:09;;;;;;;4.20;3.22;;;;;;;11.67;100.00;100764.97;4855822;29;20046;-85
2023/07/06 02:00:39;;;;;;;4.97;3.10;;;;;;;11.61;100.00;100767.78;4870929;29;20041;-86
2023/07/06 02:03:06;;;;;;;6.07;3.33;;;;;;;11.61;100.00;100765.13;4866011;29;20113;-83
2023/07/06 02:05:36;;;;;;;5.05;3.47;;;;;;;11.61;100.00;100767.78;4857231;29;20071;-86
2023/07/06 02:08:06;;;;;;;4.07;3.13;;;;;;;11.59;100.00;100769.56;4855853;29;20037;-85
2023/07/06 02:10:33;;;;;;;4.05;3.15;;;;;;;11.49;100.00;100771.56;4854194;29;20061;-82
2023/07/06 02:12:59;;;;;;;5.15;3.70;;;;;;;11.41;100.00;100777.94;4870029;29;20062;-85
2023/07/06 02:15:27;;;;;;;4.60;3.35;;;;;;;11.44;100.00;100776.09;4842122;29;20029;-84
2023/07/06 02:17:55;;;;;;;4.07;3.10;;;;;;;11.46;100.00;100790.16;4873455;29;20109;-85
2023/07/06 02:20:23;;;;;;;4.18;3.03;;;;;;;11.47;100.00;100788.38;4838947;29;20520;-85
2023/07/06 12:11:42;;;;;;;2.85;1.80;;;;;;;23.52;42.52;101052.28;4886694;23;20056;-84
2023/07/06 12:19:47;;;;;;;3.22;2.00;;;;;;;23.34;43.68;101048.13;4892538;23;20085;-83
2023/07/06 12:23:28;;;;;;;3.70;1.98;;;;;;;22.91;44.11;101051.88;4878522;29;20153;-85
2023/07/06 12:26:42;;;;;;;2.40;1.90;;;;;;;22.78;47.09;101064.34;4889280;29;20052;-83
2023/07/06 12:29:09;;;;;;;3.22;1.98;;;;;;;22.57;43.99;101061.25;4864037;29;20053;-81
2023/07/06 12:31:40;;;;;;;2.47;1.75;;;;;;;22.32;46.67;101061.94;4870101;29;20041;-81
2023/07/06 12:34:08;;;;;;;3.63;1.90;;;;;;;22.07;46.86;101062.59;4864771;29;20041;-81
2023/07/06 12:36:38;;;;;;;4.07;2.13;;;;;;;21.97;44.73;101074.00;4873528;29;20041;-81
2023/07/06 12:39:06;;;;;;;2.88;1.67;;;;;;;21.75;44.91;101069.91;4850721;29;20080;-83
2023/07/06 12:41:34;;;;;;;3.45;2.20;;;;;;;21.49;46.64;101076.00;4861699;29;20577;-82
2023/07/06 12:44:03;;;;;;;2.63;1.67;;;;;;;21.28;47.46;101075.44;4848139;29;20068;-81
2023/07/06 12:46:32;;;;;;;2.10;1.63;;;;;;;21.24;47.47;101076.53;4853954;29;20061;-84
2023/07/06 12:49:06;;;;;;;1.60;1.50;;;;;;;21.18;46.43;101072.38;4865535;29;20040;-82
2023/07/06 12:51:33;;;;;;;2.47;1.33;;;;;;;21.08;47.65;101073.88;4880180;29;20056;-82
2023/07/06 12:54:01;;;;;;;2.75;1.95;;;;;;;21.06;45.76;101079.34;4858360;29;20038;-82
2023/07/06 12:56:29;;;;;;;2.13;1.90;;;;;;;20.92;48.43;101076.56;4868527;29;20037;-82
2023/07/06 12:59:00;;;;;;;2.70;1.95;;;;;;;20.83;50.63;101077.09;4868783;29;20060;-82
2023/07/06 13:01:39;;;;;;;2.33;1.50;;;;;;;20.99;50.49;101083.31;4866173;29;20144;-82
2023/07/06 13:04:10;;;;;;;3.08;2.08;;;;;;;20.81;48.31;101073.63;4866427;29;20041;-82
2023/07/06 13:06:42;;;;;;;2.10;1.70;;;;;;;20.93;49.16;101074.75;4893859;29;20037;-82
2023/07/06 13:09:13;;;;;;;2.50;1.77;;;;;;;21.12;48.13;101078.13;4866949;29;20074;-83
2023/07/06 13:11:45;;;;;;;3.20;2.05;;;;;;;21.12;47.87;101077.25;4879986;29;20046;-83
2023/07/06 13:14:18;;;;;;;2.53;1.70;;;;;;;21.29;47.42;101079.88;4862041;29;20060;-83
2023/07/06 13:16:52;;;;;;;1.95;1.52;;;;;;;21.42;46.54;101082.69;4849227;29;20135;-85
2023/07/06 13:19:21;;;;;;;2.20;1.80;;;;;;;21.77;46.63;101077.88;4844802;29;20045;-83
2023/07/06 13:21:48;;;;;;;1.90;1.75;;;;;;;22.04;47.04;101072.66;4875875;29;20045;-82
2023/07/06 13:24:16;;;;;;;1.73;1.60;;;;;;;22.37;42.04;101070.59;4862042;29;20530;-82
2023/07/06 13:26:43;;;;;;;2.08;1.40;;;;;;;22.79;43.73;101066.13;4851474;29;20045;-86
2023/07/06 13:29:11;;;;;;;3.03;1.58;;;;;;;23.03;42.20;101063.66;4847646;29;20045;-84
2023/07/06 13:31:39;;;;;;;4.72;1.80;;;;;;;23.19;40.85;101058.97;4864142;29;20133;-82
2023/07/06 13:34:22;;;;;;;2.05;1.70;;;;;;;23.54;41.98;101059.31;4867163;29;20045;-82
2023/07/06 13:36:48;;;;;;;2.95;1.70;;;;;;;23.63;40.10;101054.25;4860427;29;20047;-84
2023/07/06 13:39:15;;;;;;;2.28;1.73;;;;;;;23.79;42.47;101066.59;4878151;29;20050;-87
2023/07/06 13:41:43;;;;;;;2.10;1.55;;;;;;;23.04;42.34;101070.78;4878854;29;20069;-86
2023/07/06 13:44:10;;;;;;;2.53;1.63;;;;;;;23.35;39.38;101069.59;4897168;29;20045;-82
2023/07/06 13:46:38;;;;;;;2.55;1.90;;;;;;;23.54;39.58;101064.72;4884765;29;20115;-86
2023/07/06 13:49:06;;;;;;;2.40;1.77;;;;;;;23.72;39.60;101072.53;4870471;29;20738;-84
2023/07/06 13:51:33;;;;;;;3.72;1.90;;;;;;;24.02;38.53;101067.69;4879693;29;20049;-84
2023/07/06 13:53:59;;;;;;;5.10;2.45;;;;;;;23.97;37.79;101063.59;4886430;29;20097;-82
2023/07/06 13:56:27;;;;;;;1.90;1.50;;;;;;;23.82;38.94;101063.69;4883908;29;20040;-83
2023/07/06 13:58:55;;;;;;;1.90;1.58;;;;;;;23.76;38.99;101074.03;4867182;29;20222;-81
2023/07/06 14:01:23;;;;;;;3.40;1.67;;;;;;;23.83;40.12;101061.84;4873379;29;20110;-84
2023/07/06 14:03:53;;;;;;;2.55;1.83;;;;;;;24.01;37.48;101063.25;4867384;29;20049;-82
2023/07/06 14:06:20;;;;;;;2.20;1.63;;;;;;;24.02;39.38;101070.38;4857687;29;20049;-83
2023/07/06 14:08:47;;;;;;;2.03;1.83;;;;;;;23.90;39.03;101075.78;4885806;29;20193;-83
2023/07/06 14:11:14;;;;;;;2.00;1.58;;;;;;;23.66;36.40;101070.25;4875705;29;20064;-85
2023/07/06 14:13:41;;;;;;;2.15;1.40;;;;;;;23.50;38.20;101073.09;4856112;29;20041;-83
2023/07/06 14:16:12;;;;;;;2.78;1.55;;;;;;;23.57;39.38;101069.03;4866034;29;20048;-83
2023/07/06 14:18:39;;;;;;;2.88;1.60;;;;;;;23.67;38.77;101070.13;4854561;29;20045;-82
2023/07/06 14:21:05;;;;;;;2.22;1.88;;;;;;;23.84;39.93;101077.06;4860102;29;20080;-82
2023/07/06 14:23:33;;;;;;;2.42;1.58;;;;;;;24.00;39.39;101080.44;4889933;29;20041;-82
2023/07/06 14:26:01;;;;;;;2.20;1.48;;;;;;;24.17;38.21;101065.75;4883716;29;20044;-86
2023/07/06 14:28:30;;;;;;;2.35;1.60;;;;;;;24.23;37.15;101070.72;4877486;29;20072;-84
2023/07/06 14:31:02;;;;;;;1.42;1.33;;;;;;;24.14;37.03;101069.53;4874336;29;20051;-83
2023/07/06 14:33:29;;;;;;;2.38;1.60;;;;;;;24.16;36.93;101066.72;4859935;29;20041;-82
2023/07/06 14:35:56;;;;;;;2.13;1.80;;;;;;;24.20;35.88;101056.56;4856973;29;20135;-81
2023/07/06 14:38:24;;;;;;;1.70;1.40;;;;;;;24.29;35.38;101053.19;4848985;29;20045;-83
2023/07/06 14:40:52;;;;;;;1.88;1.50;;;;;;;24.36;36.85;101068.03;4881639;29;20037;-86
2023/07/06 14:43:19;;;;;;;2.20;1.70;;;;;;;24.26;36.23;101064.22;4877406;29;20068;-83
2023/07/06 14:45:46;;;;;;;1.70;1.60;;;;;;;24.32;35.64;101064.69;4862268;29;20042;-81
2023/07/06 14:48:13;;;;;;;2.30;1.30;;;;;;;24.22;33.70;101058.19;4870516;29;20124;-84
2023/07/06 14:50:40;;;;;;;2.22;1.48;;;;;;;24.14;36.25;101074.06;4862471;29;20458;-83
2023/07/06 14:53:09;;;;;;;1.55;1.42;;;;;;;23.98;35.98;101079.69;4858075;29;20094;-82
2023/07/06 14:55:36;;;;;;;2.00;1.48;;;;;;;24.12;36.54;101076.00;4879715;29;20049;-83
2023/07/06 14:58:04;;;;;;;1.35;1.20;;;;;;;24.23;34.32;101072.56;4872682;29;20037;-83
2023/07/06 15:00:32;;;;;;;2.65;1.50;;;;;;;23.97;36.14;101075.25;4858913;29;20564;-83
2023/07/06 15:02:59;;;;;;;2.58;1.42;;;;;;;23.99;35.72;101067.06;4869428;29;20061;-82
2023/07/06 15:05:26;;;;;;;1.98;1.50;;;;;;;24.18;36.07;101067.47;4882215;29;20405;-81
2023/07/06 15:07:53;;;;;;;3.28;1.40;;;;;;;24.26;35.60;101064.22;4883913;29;20483;-86
2023/07/06 15:10:20;;;;;;;1.75;1.23;;;;;;;24.35;35.50;101067.16;4870796;29;20190;-81
2023/07/06 15:12:47;;;;;;;1.60;1.30;;;;;;;24.48;35.04;101063.59;4856493;29;20072;-83
2023/07/06 15:15:15;;;;;;;2.00;1.70;;;;;;;24.21;34.31;101069.06;4849389;29;20064;-83
2023/07/06 15:17:42;;;;;;;1.20;1.10;;;;;;;24.05;34.52;101072.88;4863477;29;20048;-83
2023/07/06 15:20:10;;;;;;;2.63;1.70;;;;;;;24.05;34.78;101072.03;4882084;29;20051;-83
2023/07/06 15:22:37;;;;;;;2.58;1.40;;;;;;;24.03;35.80;101069.41;4870407;29;20052;-81
2023/07/06 15:25:05;;;;;;;2.03;1.38;;;;;;;24.17;35.47;101072.97;4861240;29;20321;-81
2023/07/06 15:27:32;;;;;;;5.35;1.90;;;;;;;24.24;35.72;101080.53;4878687;29;20061;-83
2023/07/06 15:29:59;;;;;;;2.05;1.70;;;;;;;24.05;36.73;101072.88;4864795;29;20127;-81
2023/07/06 15:32:25;;;;;;;2.47;1.42;;;;;;;23.65;35.83;101066.69;4847443;29;20136;-84
2023/07/06 15:34:52;;;;;;;4.35;1.55;;;;;;;23.52;35.57;101072.00;4855525;29;20037;-83
2023/07/06 15:37:28;;;;;;;1.77;1.23;;;;;;;23.45;35.39;101070.69;4878330;29;20045;-84
2023/07/06 15:39:57;;;;;;;1.80;1.38;;;;;;;23.36;36.02;101076.72;4867088;29;20067;-84
2023/07/06 15:42:25;;;;;;;3.78;2.10;;;;;;;23.34;36.58;101070.56;4870828;29;20565;-86
2023/07/06 15:44:52;;;;;;;1.80;1.40;;;;;;;23.36;36.55;101070.47;4870090;29;20029;-84
2023/07/06 15:47:18;;;;;;;2.28;1.58;;;;;;;23.41;38.84;101073.72;4862887;29;20139;-80
2023/07/06 15:49:45;;;;;;;2.15;1.42;;;;;;;23.15;38.15;101078.16;4864162;29;20070;-83
2023/07/06 15:52:12;;;;;;;2.03;1.83;;;;;;;23.20;38.55;101071.47;4878319;29;20049;-82
2023/07/06 15:54:39;;;;;;;3.05;1.90;;;;;;;23.38;38.42;101073.94;4865716;29;20132;-80
2023/07/06 15:57:05;;;;;;;2.00;1.80;;;;;;;23.52;37.29;101066.63;4878892;29;20045;-81
2023/07/06 15:59:32;;;;;;;1.92;1.58;;;;;;;23.65;37.03;101074.78;4883565;29;20128;-81
2023/07/06 16:02:00;;;;;;;3.55;1.58;;;;;;;23.44;37.41;101074.38;4857192;29;20052;-83
2023/07/06 16:04:27;;;;;;;2.47;1.80;;;;;;;23.53;36.70;101067.47;4862059;29;20667;-81
2023/07/06 16:06:54;;;;;;;3.33;1.70;;;;;;;23.54;37.78;101069.19;4841592;29;20105;-81
2023/07/06 16:09:21;;;;;;;2.20;1.80;;;;;;;23.63;39.42;101073.13;4882185;29;20136;-81
2023/07/06 16:11:49;;;;;;;2.08;1.55;;;;;;;23.69;37.51;101073.59;4840060;29;20048;-81
2023/07/06 16:14:16;;;;;;;2.95;1.50;;;;;;;23.59;37.26;101070.66;4854924;29;20493;-81
2023/07/06 16:16:45;;;;;;;2.00;1.52;;;;;;;23.42;36.56;101075.44;4856363;29;20041;-82
2023/07/06 16:19:13;;;;;;;1.92;1.50;;;;;;;23.26;39.19;101075.59;4852314;29;20061;-82
2023/07/06 16:21:41;;;;;;;2.67;1.98;;;;;;;22.91;37.98;101080.63;4847372;29;20101;-82
2023/07/06 16:24:08;;;;;;;2.58;1.80;;;;;;;22.76;38.66;101077.94;4860033;29;20225;-84
2023/07/06 16:26:35;;;;;;;1.95;1.50;;;;;;;22.79;39.67;101079.59;4851766;29;20557;-81
2023/07/06 16:29:02;;;;;;;2.15;1.73;;;;;;;22.85;40.63;101076.50;4862716;29;20334;-81
2023/07/06 16:31:29;;;;;;;3.58;1.70;;;;;;;23.00;42.12;101080.03;4874965;29;20104;-83
2023/07/06 16:33:59;;;;;;;2.78;1.70;;;;;;;22.91;39.64;101077.94;4877637;29;20056;-81
2023/07/06 16:36:26;;;;;;;1.80;1.60;;;;;;;22.99;40.70;101076.47;4875636;29;20101;-81
2023/07/06 16:38:52;;;;;;;2.42;1.50;;;;;;;22.90;38.82;101071.69;4877793;29;20038;-83
2023/07/06 16:41:19;;;;;;;1.60;1.50;;;;;;;22.98;38.64;101074.75;4865134;29;20145;-81
2023/07/06 16:43:47;;;;;;;1.83;1.55;;;;;;;23.00;41.16;101080.91;4845671;29;20048;-81
2023/07/06 16:46:15;;;;;;;1.90;1.67;;;;;;;22.90;38.81;101074.38;4856959;29;20052;-81
2023/07/06 16:48:41;;;;;;;3.60;1.70;;;;;;;23.05;38.26;101077.03;4869835;29;20125;-81
2023/07/06 16:51:08;;;;;;;3.05;1.65;;;;;;;23.06;38.72;101076.94;4856042;29;20045;-81
2023/07/06 16:53:36;;;;;;;2.53;1.60;;;;;;;23.12;39.06;101072.97;4859559;29;20406;-81
2023/07/06 16:56:03;;;;;;;1.60;1.30;;;;;;;23.20;38.10;101081.41;4873267;29;20143;-81
2023/07/06 16:58:30;;;;;;;2.30;1.60;;;;;;;23.21;38.98;101088.53;4841600;29;20520;-84
2023/07/06 17:01:00;;;;;;;2.03;1.70;;;;;;;23.18;36.73;101086.03;4850860;29;20088;-82
2023/07/06 17:03:27;;;;;;;2.15;1.67;;;;;;;23.08;35.97;101084.91;4859022;29;20059;-82
2023/07/06 17:05:56;;;;;;;2.33;1.38;;;;;;;22.88;37.49;101092.50;4858403;29;20049;-81
2023/07/06 17:08:23;;;;;;;1.95;1.65;;;;;;;22.69;38.78;101090.06;4854146;29;20038;-83
2023/07/06 17:10:50;;;;;;;2.60;1.70;;;;;;;22.54;38.57;101092.91;4854110;29;20037;-82
2023/07/06 17:13:17;;;;;;;4.18;3.58;;;;;;;22.30;39.90;101106.06;4855929;29;20092;-84
2023/07/06 17:15:49;;;;;;;3.22;2.40;;;;;;;22.23;42.76;101110.97;4857182;29;20042;-82
2023/07/06 17:18:16;;;;;;;2.25;2.05;;;;;;;22.09;40.75;101103.72;4867693;29;20280;-81
2023/07/06 17:20:46;;;;;;;2.78;1.85;;;;;;;21.93;41.04;101103.75;4862127;29;20076;-82
2023/07/06 17:23:12;;;;;;;1.80;1.60;;;;;;;21.86;41.64;101096.16;4871665;29;20116;-82
2023/07/06 17:25:40;;;;;;;3.58;1.95;;;;;;;21.77;40.36;101100.25;4858245;29;20041;-82
2023/07/06 17:28:07;;;;;;;3.47;2.10;;;;;;;21.75;41.47;101101.31;4871442;29;20057;-83
2023/07/06 17:30:33;;;;;;;8.63;3.00;;;;;;;21.70;44.25;101106.13;4837795;29;20171;-82
2023/07/06 17:33:00;;;;;;;3.60;2.50;;;;;;;21.70;41.27;101109.69;4851820;29;20445;-81
2023/07/06 17:35:27;;;;;;;2.78;2.10;;;;;;;21.43;42.45;101103.22;4868945;29;20089;-82
2023/07/06 17:37:53;;;;;;;3.00;2.20;;;;;;;21.29;43.58;101104.91;4853629;29;20045;-81
2023/07/06 17:40:20;;;;;;;2.90;2.15;;;;;;;21.07;44.77;101110.63;4843970;29;20055;-81
2023/07/06 17:42:47;;;;;;;2.35;1.88;;;;;;;21.20;47.64;101112.63;4875129;29;20060;-81
2023/07/06 17:45:14;;;;;;;2.25;1.85;;;;;;;20.98;47.19;101103.06;4840774;29;20053;-81
2023/07/06 17:47:40;;;;;;;2.17;1.60;;;;;;;20.76;46.99;101108.78;4853267;29;20124;-81
2023/07/06 17:50:08;;;;;;;2.92;1.80;;;;;;;20.85;48.69;101107.44;4856229;29;20041;-81
2023/07/06 17:52:35;;;;;;;2.63;1.60;;;;;;;20.82;51.82;101114.78;4876672;29;20045;-81
2023/07/06 17:55:02;;;;;;;2.38;1.60;;;;;;;20.79;53.18;101127.44;4866625;29;20484;-81
2023/07/06 17:57:28;;;;;;;3.08;1.45;;;;;;;20.63;53.84;101123.00;4868794;29;20048;-81
2023/07/06 17:59:55;;;;;;;3.05;1.67;;;;;;;20.50;53.01;101125.47;4855160;29;20345;-83
2023/07/06 18:02:22;;;;;;;2.17;1.30;;;;;;;20.38;53.23;101126.09;4855106;29;20045;-82
2023/07/06 18:04:48;;;;;;;1.90;1.60;;;;;;;20.47;51.90;101126.50;4861579;29;20045;-81
2023/07/06 18:07:15;;;;;;;2.75;1.75;;;;;;;20.31;52.80;101135.44;4850077;29;20076;-82
2023/07/06 18:09:42;;;;;;;1.60;1.48;;;;;;;20.14;52.22;101123.78;4867634;29;20168;-81
2023/07/06 18:12:09;;;;;;;3.33;1.88;;;;;;;20.11;54.95;101133.81;4864204;29;20053;-81
2023/07/06 18:14:35;;;;;;;3.22;1.90;;;;;;;20.20;52.66;101128.81;4855898;29;20481;-81
2023/07/06 18:17:02;;;;;;;2.47;1.67;;;;;;;20.08;54.41;101133.94;4840307;29;20045;-81
2023/07/06 18:19:29;;;;;;;2.03;1.52;;;;;;;20.02;55.88;101139.66;4869334;29;20072;-82
2023/07/06 18:21:57;;;;;;;2.30;1.73;;;;;;;20.00;53.05;101133.47;4854704;29;20053;-81
2023/07/06 18:24:24;;;;;;;2.55;1.80;;;;;;;19.94;53.39;101134.69;4866714;29;20521;-82
2023/07/06 18:26:53;;;;;;;2.38;1.70;;;;;;;19.86;54.38;101134.22;4857494;29;20053;-82
2023/07/06 18:29:20;;;;;;;2.60;1.80;;;;;;;19.79;55.29;101132.78;4856500;29;20105;-81
2023/07/06 18:31:48;;;;;;;3.83;1.85;;;;;;;19.80;56.64;101137.22;4859744;29;20045;-80
2023/07/06 18:34:16;;;;;;;3.22;1.98;;;;;;;19.81;59.08;101134.44;4871474;29;20094;-81
2023/07/06 18:36:43;;;;;;;2.83;1.90;;;;;;;19.73;60.40;101135.78;4851320;29;20501;-82
2023/07/06 18:39:10;;;;;;;1.90;1.67;;;;;;;19.58;61.85;101138.28;4840478;29;20420;-83
2023/07/06 18:41:37;;;;;;;2.30;1.70;;;;;;;19.60;61.87;101140.91;4852513;29;20050;-82
2023/07/06 18:44:04;;;;;;;2.83;1.80;;;;;;;19.44;62.86;101140.78;4858706;29;20105;-82
2023/07/06 18:46:31;;;;;;;3.67;1.95;;;;;;;19.38;61.44;101144.63;4841821;29;20040;-83
2023/07/06 18:48:58;;;;;;;2.40;1.83;;;;;;;19.22;60.99;101134.72;4876219;29;20048;-82
2023/07/06 18:51:24;;;;;;;2.95;2.35;;;;;;;19.06;60.98;101148.84;4876711;29;20072;-83
2023/07/06 18:53:51;;;;;;;2.10;1.90;;;;;;;19.00;61.66;101151.84;4859201;29;20159;-84
2023/07/06 18:56:18;;;;;;;3.50;2.05;;;;;;;18.87;61.04;101153.34;4845097;29;20132;-83
2023/07/06 18:58:45;;;;;;;3.05;2.35;;;;;;;18.79;60.87;101155.53;4859821;29;20065;-82
2023/07/06 19:01:12;;;;;;;3.85;2.30;;;;;;;18.68;60.57;101168.53;4858303;29;20528;-81
2023/07/06 19:03:39;;;;;;;4.85;2.50;;;;;;;18.59;60.47;101166.25;4843949;29;20069;-82
2023/07/06 19:06:07;;;;;;;3.58;2.28;;;;;;;18.45;60.52;101170.41;4840624;29;20152;-82
2023/07/06 19:08:43;;;;;;;2.65;2.20;;;;;;;18.31;60.92;101180.84;4858438;29;20045;-82
2023/07/06 19:11:12;;;;;;;3.00;2.30;;;;;;;18.17;61.91;101181.47;4859554;29;20056;-83
2023/07/06 19:13:40;;;;;;;3.67;2.08;;;;;;;18.08;62.55;101189.91;4855250;29;20083;-81
2023/07/06 19:16:07;;;;;;;2.42;2.22;;;;;;;17.98;62.93;101189.41;4855593;29;20157;-82
2023/07/06 19:18:33;;;;;;;2.47;2.28;;;;;;;17.93;62.44;101188.75;4864645;29;20093;-83
2023/07/06 19:21:00;;;;;;;3.58;2.33;;;;;;;17.88;61.89;101193.41;4855164;29;20461;-81
2023/07/06 19:23:28;;;;;;;3.42;2.47;;;;;;;17.75;63.37;101189.53;4868626;29;20045;-80
2023/07/06 19:25:55;;;;;;;3.08;2.58;;;;;;;17.60;65.65;101201.69;4838944;29;20063;-82
2023/07/06 19:28:23;;;;;;;2.90;2.60;;;;;;;17.50;66.67;101207.47;4854594;29;20042;-82
2023/07/06 19:30:49;;;;;;;3.75;2.70;;;;;;;17.38;66.41;101211.47;4856464;29;20152;-82
2023/07/06 19:33:16;;;;;;;4.65;3.53;;;;;;;17.17;67.14;101208.75;4863201;29;20049;-84
2023/07/06 19:35:43;;;;;;;4.78;3.65;;;;;;;16.98;68.26;101217.50;4837441;29;20045;-83
2023/07/06 19:38:10;;;;;;;3.92;3.20;;;;;;;16.99;67.42;101224.59;4863240;29;20493;-84
2023/07/06 19:40:37;;;;;;;4.85;3.20;;;;;;;16.92;67.26;101228.44;4869401;29;20049;-82
2023/07/06 19:43:03;;;;;;;3.63;3.22;;;;;;;16.77;68.63;101228.06;4862631;29;20140;-82
2023/07/06 19:45:35;;;;;;;3.80;3.40;;;;;;;16.67;68.20;101236.44;4862731;29;20144;-82
2023/07/06 19:48:02;;;;;;;4.47;2.97;;;;;;;16.58;67.95;101234.97;4859745;29;20131;-83
2023/07/06 19:50:29;;;;;;;3.83;3.20;;;;;;;16.50;68.49;101240.59;4871656;29;20056;-81
2023/07/06 19:52:55;;;;;;;2.97;2.65;;;;;;;16.39;68.61;101252.53;4847119;29;20052;-82
2023/07/06 19:55:22;;;;;;;4.32;2.67;;;;;;;16.30;69.58;101240.41;4862750;29;20477;-83
2023/07/06 19:57:49;;;;;;;3.20;2.83;;;;;;;16.24;70.03;101249.50;4862949;29;20037;-82
2023/07/06 20:00:17;;;;;;;4.13;3.20;;;;;;;16.20;70.18;101239.84;4855598;29;20492;-81
2023/07/06 20:02:44;;;;;;;2.83;2.58;;;;;;;16.15;70.17;101256.94;4865693;29;20140;-82
2023/07/06 20:05:11;;;;;;;3.58;3.17;;;;;;;15.97;72.12;101253.09;4855804;29;20041;-83
2023/07/06 20:07:37;;;;;;;2.88;2.58;;;;;;;15.88;73.54;101251.59;4855362;29;20056;-81
2023/07/06 20:10:05;;;;;;;3.40;3.10;;;;;;;15.71;74.69;101249.47;4840456;29;20049;-82
2023/07/06 20:12:32;;;;;;;3.72;2.72;;;;;;;15.67;75.21;101257.63;4868997;29;20049;-82
2023/07/06 20:14:59;;;;;;;4.32;3.80;;;;;;;15.57;75.52;101256.16;4865264;29;20819;-83
2023/07/06 20:17:26;;;;;;;6.63;3.78;;;;;;;15.48;76.31;101257.31;4855238;29;20056;-82
2023/07/06 20:19:53;;;;;;;6.30;4.00;;;;;;;15.37;77.61;101257.63;4871167;29;20417;-82
2023/07/06 20:22:20;;;;;;;4.85;3.33;;;;;;;15.33;77.72;101260.44;4863017;29;20088;-82
2023/07/06 20:24:49;;;;;;;4.93;2.85;;;;;;;15.29;79.58;101264.09;4852161;29;20041;-82
2023/07/06 20:27:16;;;;;;;2.92;2.58;;;;;;;15.15;80.88;101273.41;4870071;29;20045;-81
2023/07/06 20:29:42;;;;;;;3.35;2.92;;;;;;;15.04;81.91;101270.16;4852877;29;20121;-81
2023/07/06 20:32:11;;;;;;;5.00;3.05;;;;;;;15.04;82.05;101277.25;4855689;29;20489;-84
2023/07/06 20:34:39;;;;;;;5.22;3.22;;;;;;;14.97;82.63;101284.56;4860551;29;20064;-80
2023/07/06 20:37:08;;;;;;;4.35;2.90;;;;;;;14.84;83.45;101284.03;4870410;29;20052;-83
2023/07/06 20:39:35;;;;;;;4.88;3.42;;;;;;;14.76;83.89;101279.84;4863953;29;20041;-82
2023/07/06 20:42:04;;;;;;;3.60;3.30;;;;;;;14.67;84.75;101291.63;4854242;29;20728;-81
2023/07/06 20:44:30;;;;;;;3.53;2.95;;;;;;;14.66;84.88;101294.31;4844508;29;20045;-80
2023/07/06 20:46:57;;;;;;;4.28;3.47;;;;;;;14.59;85.81;101291.81;4874022;29;20060;-82
2023/07/06 20:49:24;;;;;;;4.53;3.13;;;;;;;14.48;87.20;101296.56;4851183;29;20049;-82
2023/07/06 20:51:51;;;;;;;4.20;3.53;;;;;;;14.46;87.82;101300.16;4858629;29;20051;-81
2023/07/06 20:54:17;;;;;;;5.22;3.70;;;;;;;14.43;88.46;101306.41;4868802;29;20049;-82
2023/07/06 20:56:44;;;;;;;5.18;3.75;;;;;;;14.35;89.68;101303.06;4869316;29;20733;-83
2023/07/06 20:59:10;;;;;;;5.18;3.78;;;;;;;14.24;90.35;101308.66;4854297;29;20413;-82
2023/07/06 21:01:37;;;;;;;6.40;4.93;;;;;;;14.16;91.00;101312.44;4850913;29;20069;-82
2023/07/06 21:04:04;;;;;;;6.30;5.80;;;;;;;14.07;91.61;101316.19;4860279;29;20040;-82
2023/07/06 21:06:31;;;;;;;6.88;6.25;;;;;;;14.06;91.99;101320.63;4861437;29;20055;-81
2023/07/06 21:08:57;;;;;;;7.65;6.95;;;;;;;13.97;91.53;101315.53;4872122;29;20116;-82
2023/07/06 21:11:24;;;;;;;8.50;6.95;;;;;;;13.93;92.34;101324.47;4854635;29;20080;-82
2023/07/06 21:13:51;;;;;;;6.57;5.97;;;;;;;13.86;92.59;101324.66;4870753;29;20041;-81
2023/07/06 21:16:39;;;;;;;8.05;6.72;;;;;;;13.75;93.27;101324.91;4860537;29;20108;-82
2023/07/06 21:19:08;;;;;;;7.75;6.97;;;;;;;13.70;94.00;101332.09;4846369;29;20041;-83
2023/07/06 21:21:35;;;;;;;8.93;6.95;;;;;;;13.60;94.74;101330.56;4854665;29;20061;-83
2023/07/06 21:24:02;;;;;;;7.10;6.40;;;;;;;13.56;95.96;101334.22;4855790;29;20523;-82
2023/07/06 21:26:31;;;;;;;7.20;6.57;;;;;;;13.55;97.13;101337.78;4854056;29;20072;-81
2023/07/06 21:28:58;;;;;;;6.80;6.15;;;;;;;13.46;98.36;101337.06;4857728;29;20057;-81